Time;durP1;ratioP1;P1;durP2;ratioP2;P2;SDS_P1;SDS_P2;PMS_P1;PMS_P2;Temp;Humidity;BMP_temperature;BMP_pressure;BME280_temperature;BME280_humidity;BME280_pressure;Samples;Min_cycle;Max_cycle;Signal;HPM_P1;HPM_P2
2022/09/23 00:01:47;;;;;;;1.70;1.60;;;15.50;62.90;;;;;;5051085;28;20057;-71
2022/09/23 00:04:14;;;;;;;1.95;1.52;;;15.50;62.90;;;;;;5051490;28;20144;-71
2022/09/23 00:06:42;;;;;;;1.65;1.40;;;15.60;64.60;;;;;;5051541;28;20508;-71
2022/09/23 00:09:09;;;;;;;1.88;1.60;;;15.50;62.90;;;;;;5051333;28;20494;-71
2022/09/23 00:11:36;;;;;;;2.03;1.60;;;15.50;62.90;;;;;;5051181;28;20131;-72
2022/09/23 00:14:02;;;;;;;2.33;1.63;;;15.50;62.90;;;;;;5051691;28;20057;-72
2022/09/23 00:16:31;;;;;;;1.90;1.70;;;15.50;62.90;;;;;;5051225;28;20061;-71
2022/09/23 00:18:58;;;;;;;1.70;1.50;;;15.50;62.90;;;;;;5052513;28;20052;-72
2022/09/23 00:21:25;;;;;;;2.45;1.95;;;15.60;62.90;;;;;;5052110;28;20490;-72
2022/09/23 00:23:53;;;;;;;2.10;1.80;;;15.50;66.10;;;;;;5051048;28;20490;-71
2022/09/23 00:26:20;;;;;;;2.28;1.83;;;15.70;66.00;;;;;;5051002;28;20060;-71
2022/09/23 00:28:47;;;;;;;2.50;1.70;;;15.50;62.90;;;;;;5052099;28;20053;-72
2022/09/23 00:31:15;;;;;;;2.00;1.80;;;15.50;65.70;;;;;;5052092;28;20045;-71
2022/09/23 00:33:42;;;;;;;2.03;1.77;;;15.50;62.90;;;;;;5050926;28;20053;-72
2022/09/23 00:36:10;;;;;;;2.58;1.70;;;15.50;62.90;;;;;;5050750;28;20063;-72
2022/09/23 00:38:37;;;;;;;1.92;1.58;;;15.50;62.90;;;;;;5051003;28;20493;-71
2022/09/23 00:41:06;;;;;;;1.95;1.70;;;15.50;66.30;;;;;;5050917;28;20060;-72
2022/09/23 00:43:37;;;;;;;1.90;1.70;;;15.50;62.90;;;;;;5051166;28;20106;-72
2022/09/23 00:46:04;;;;;;;2.05;1.80;;;15.50;62.80;;;;;;5051037;28;20049;-71
2022/09/23 00:48:31;;;;;;;1.58;1.40;;;15.50;62.90;;;;;;5050694;28;20512;-72
2022/09/23 00:50:58;;;;;;;1.92;1.70;;;15.50;62.90;;;;;;5051448;28;20056;-72
2022/09/23 00:53:25;;;;;;;2.15;1.80;;;15.50;62.90;;;;;;5050884;28;20059;-72
2022/09/23 00:55:53;;;;;;;1.95;1.55;;;15.50;62.90;;;;;;5052193;28;20383;-71
2022/09/23 00:58:23;;;;;;;2.08;1.60;;;15.50;62.90;;;;;;5050882;28;20063;-71
2022/09/23 01:00:50;;;;;;;1.90;1.70;;;15.50;62.90;;;;;;5051461;28;20080;-71
2022/09/23 01:03:18;;;;;;;2.05;1.75;;;15.50;62.90;;;;;;5050781;28;20088;-72
2022/09/23 01:05:45;;;;;;;2.42;1.80;;;15.50;62.90;;;;;;5050815;28;20668;-72
2022/09/23 01:08:11;;;;;;;2.67;2.00;;;15.50;62.90;;;;;;5050382;28;20053;-71
2022/09/23 01:10:42;;;;;;;2.65;1.90;;;15.40;62.90;;;;;;5051474;28;20051;-71
2022/09/23 01:13:14;;;;;;;2.00;1.70;;;15.50;62.90;;;;;;5051613;28;20053;-71
2022/09/23 01:15:44;;;;;;;2.22;1.95;;;15.40;62.90;;;;;;5052937;28;20045;-71
2022/09/23 01:18:16;;;;;;;2.65;1.70;;;15.50;62.90;;;;;;5052657;28;20060;-71
2022/09/23 01:20:58;;;;;;;3.97;1.60;;;15.40;62.80;;;;;;5052401;28;20059;-71
2022/09/23 01:23:48;;;;;;;2.28;1.95;;;15.40;62.90;;;;;;5052240;28;20057;-71
2022/09/23 01:26:27;;;;;;;2.00;1.63;;;15.40;62.80;;;;;;5023407;28;20063;-71
2022/09/23 01:29:02;;;;;;;2.30;1.70;;;15.40;62.90;;;;;;5052207;28;20056;-71
2022/09/23 01:31:33;;;;;;;2.25;1.70;;;15.40;62.90;;;;;;5053089;28;20049;-71
2022/09/23 01:34:03;;;;;;;3.55;1.80;;;15.40;62.90;;;;;;5053202;28;20045;-71
2022/09/23 01:36:32;;;;;;;2.25;1.70;;;14.90;65.60;;;;;;5053515;28;20055;-71
2022/09/23 01:39:00;;;;;;;2.00;1.80;;;15.40;62.90;;;;;;5053532;28;20052;-71
2022/09/23 01:41:37;;;;;;;1.85;1.58;;;15.40;62.90;;;;;;5051971;28;20049;-71
2022/09/23 01:44:05;;;;;;;2.22;1.70;;;15.40;62.90;;;;;;5053451;28;20049;-71
2022/09/23 01:46:35;;;;;;;1.70;1.60;;;15.40;62.90;;;;;;5052435;28;20068;-71
2022/09/23 01:49:04;;;;;;;2.40;1.90;;;14.40;65.60;;;;;;5052241;28;20060;-71
2022/09/23 01:51:32;;;;;;;2.17;1.80;;;15.40;62.90;;;;;;5052358;28;20415;-71
2022/09/23 01:54:03;;;;;;;2.28;1.90;;;15.40;62.90;;;;;;5052226;28;20049;-71
2022/09/23 01:56:32;;;;;;;2.20;1.60;;;15.40;62.90;;;;;;5053753;28;20048;-71
2022/09/23 01:59:02;;;;;;;1.92;1.73;;;15.40;62.90;;;;;;5052854;28;20128;-71
2022/09/23 02:01:31;;;;;;;2.20;1.92;;;15.40;62.90;;;;;;5051960;28;20521;-70
2022/09/23 02:04:03;;;;;;;2.55;1.70;;;15.30;66.40;;;;;;5055742;28;20056;-71
2022/09/23 02:06:31;;;;;;;2.30;1.77;;;15.40;62.90;;;;;;5056416;28;20102;-71
2022/09/23 02:08:59;;;;;;;1.90;1.70;;;15.40;62.90;;;;;;5057158;28;20076;-71
2022/09/23 02:11:26;;;;;;;2.75;2.28;;;15.40;62.90;;;;;;5055639;28;20084;-71
2022/09/23 02:13:53;;;;;;;1.88;1.70;;;15.40;63.40;;;;;;5055487;28;20068;-72
2022/09/23 02:16:25;;;;;;;1.92;1.75;;;15.40;62.90;;;;;;5055746;28;20144;-71
2022/09/23 02:18:53;;;;;;;1.88;1.67;;;15.40;62.90;;;;;;5056860;28;20059;-71
2022/09/23 02:21:21;;;;;;;2.38;1.73;;;15.30;62.80;;;;;;5038700;28;20056;-71
2022/09/23 02:23:50;;;;;;;2.13;1.75;;;15.30;62.80;;;;;;5055808;28;20045;-71
2022/09/23 02:26:19;;;;;;;1.80;1.70;;;14.20;65.30;;;;;;5056789;28;20056;-71
2022/09/23 02:28:50;;;;;;;2.05;1.63;;;15.30;62.80;;;;;;5055436;28;20060;-71
2022/09/23 02:31:21;;;;;;;2.38;1.75;;;15.40;62.90;;;;;;5054710;28;20053;-71
2022/09/23 02:33:52;;;;;;;1.98;1.67;;;15.50;66.10;;;;;;5056125;28;20080;-71
2022/09/23 02:36:24;;;;;;;1.98;1.77;;;15.40;62.90;;;;;;5054877;28;20045;-72
2022/09/23 02:38:52;;;;;;;2.53;1.67;;;15.30;62.80;;;;;;5055625;28;20057;-72
2022/09/23 02:41:22;;;;;;;2.08;1.70;;;15.20;66.50;;;;;;5054198;28;20490;-71
2022/09/23 02:43:52;;;;;;;2.30;1.73;;;15.60;66.50;;;;;;5054256;28;20045;-72
2022/09/23 02:46:19;;;;;;;2.35;1.73;;;15.30;62.80;;;;;;5053134;28;20082;-71
2022/09/23 02:48:48;;;;;;;2.70;1.80;;;15.30;62.80;;;;;;5054202;28;20049;-71
2022/09/23 02:51:15;;;;;;;2.10;1.77;;;15.30;62.80;;;;;;5052535;28;20053;-71
2022/09/23 02:53:44;;;;;;;1.85;1.63;;;15.30;62.80;;;;;;5054065;28;20055;-71
2022/09/23 02:56:15;;;;;;;2.15;1.85;;;15.30;62.80;;;;;;5052567;28;20076;-72
2022/09/23 02:58:42;;;;;;;1.73;1.63;;;15.40;62.80;;;;;;5052897;28;20055;-71
2022/09/23 03:01:14;;;;;;;2.53;1.70;;;15.30;62.80;;;;;;5052553;28;20064;-71
2022/09/23 03:03:43;;;;;;;1.90;1.70;;;15.30;62.80;;;;;;5052971;28;20160;-72
2022/09/23 03:06:15;;;;;;;2.10;1.67;;;15.30;62.80;;;;;;5052326;28;20137;-72
2022/09/23 03:08:49;;;;;;;2.00;1.80;;;15.30;62.80;;;;;;5052488;28;20057;-71
2022/09/23 03:11:16;;;;;;;2.28;1.70;;;15.50;66.10;;;;;;5052163;28;20095;-71
2022/09/23 03:13:51;;;;;;;2.05;1.65;;;15.30;62.80;;;;;;5053623;28;20049;-72
2022/09/23 03:16:24;;;;;;;2.35;1.63;;;15.30;62.80;;;;;;5052621;28;20079;-71
2022/09/23 03:18:52;;;;;;;2.08;1.70;;;15.30;62.80;;;;;;5052203;28;20059;-71
2022/09/23 03:21:22;;;;;;;2.00;1.67;;;15.30;62.80;;;;;;5052108;28;20056;-71
2022/09/23 03:23:53;;;;;;;2.40;1.75;;;15.30;62.80;;;;;;5036160;28;20057;-72
2022/09/23 03:26:21;;;;;;;2.15;1.77;;;15.30;62.80;;;;;;5053464;28;20055;-72
2022/09/23 03:28:49;;;;;;;2.15;1.77;;;15.30;62.80;;;;;;5053192;28;20044;-71
2022/09/23 03:31:15;;;;;;;1.70;1.55;;;15.30;62.80;;;;;;5053008;28;20045;-72
2022/09/23 03:33:45;;;;;;;1.80;1.60;;;15.30;62.80;;;;;;5051969;28;20048;-71
2022/09/23 03:39:02;;;;;;;2.00;1.70;;;15.20;62.80;;;;;;5026285;28;20052;-71
2022/09/23 03:41:31;;;;;;;2.03;1.73;;;15.20;62.80;;;;;;5051843;28;20045;-72
2022/09/23 03:43:58;;;;;;;1.73;1.60;;;15.20;62.80;;;;;;5053013;28;20079;-72
2022/09/23 03:46:27;;;;;;;2.08;1.65;;;15.20;62.80;;;;;;5053261;28;20072;-71
2022/09/23 03:48:55;;;;;;;1.83;1.70;;;15.30;62.80;;;;;;5051959;28;20061;-72
2022/09/23 03:51:22;;;;;;;1.70;1.58;;;15.30;63.10;;;;;;5051139;28;20049;-71
2022/09/23 03:53:49;;;;;;;3.25;1.65;;;15.20;62.80;;;;;;5051867;28;20106;-71
2022/09/23 03:56:17;;;;;;;2.47;1.80;;;15.20;62.80;;;;;;5052646;28;20057;-72
2022/09/23 03:58:45;;;;;;;1.85;1.67;;;15.20;62.80;;;;;;5053346;28;20056;-72
2022/09/23 04:01:13;;;;;;;2.58;2.00;;;15.20;62.80;;;;;;5054505;28;20136;-72
2022/09/23 04:03:40;;;;;;;1.80;1.60;;;15.20;62.80;;;;;;5053814;28;20056;-72
2022/09/23 04:06:07;;;;;;;2.70;1.70;;;15.20;62.80;;;;;;5053701;28;20056;-72
2022/09/23 04:08:33;;;;;;;1.95;1.70;;;15.20;62.80;;;;;;5054851;28;20449;-72
2022/09/23 04:11:00;;;;;;;1.70;1.60;;;15.20;62.80;;;;;;5053275;28;20052;-71
2022/09/23 04:13:28;;;;;;;2.80;1.70;;;15.20;62.80;;;;;;5054831;28;20049;-72
2022/09/23 04:15:55;;;;;;;2.00;1.70;;;15.20;62.80;;;;;;5053513;28;20504;-72
2022/09/23 04:18:22;;;;;;;2.00;1.80;;;15.20;62.80;;;;;;5054868;28;20071;-72
2022/09/23 04:20:49;;;;;;;2.67;1.70;;;15.20;62.80;;;;;;5053514;28;20060;-72
2022/09/23 04:23:15;;;;;;;2.35;1.83;;;15.20;62.80;;;;;;5052138;28;20048;-72
2022/09/23 04:25:45;;;;;;;2.67;2.03;;;15.80;66.70;;;;;;5050819;28;20052;-71
2022/09/23 04:28:11;;;;;;;2.60;1.85;;;15.20;62.80;;;;;;5051415;28;20490;-71
2022/09/23 04:30:42;;;;;;;2.15;1.70;;;15.20;62.80;;;;;;5051810;28;20048;-71
2022/09/23 04:33:09;;;;;;;2.55;1.85;;;15.20;62.80;;;;;;5051242;28;20543;-71
2022/09/23 04:35:36;;;;;;;2.30;1.92;;;15.20;62.70;;;;;;5051222;28;20542;-72
2022/09/23 04:38:03;;;;;;;2.17;1.95;;;15.20;62.70;;;;;;5050974;28;20056;-72
2022/09/23 04:40:30;;;;;;;2.38;1.80;;;15.20;62.80;;;;;;5052113;28;20045;-71
2022/09/23 04:42:56;;;;;;;2.42;1.90;;;15.00;65.90;;;;;;5050884;28;20162;-71
2022/09/23 04:45:23;;;;;;;2.10;1.90;;;15.20;62.70;;;;;;5050812;28;20059;-71
2022/09/23 04:47:51;;;;;;;2.25;1.80;;;15.20;62.70;;;;;;5052202;28;20051;-71
2022/09/23 04:50:18;;;;;;;1.90;1.70;;;15.10;62.70;;;;;;5050699;28;20435;-72
2022/09/23 04:52:45;;;;;;;2.10;1.83;;;15.10;62.70;;;;;;5050768;28;20057;-71
2022/09/23 04:55:11;;;;;;;2.75;1.80;;;15.10;62.70;;;;;;5051678;28;20131;-71
2022/09/23 04:57:38;;;;;;;1.80;1.65;;;15.10;62.70;;;;;;5050778;28;20056;-71
2022/09/23 05:00:06;;;;;;;2.00;1.80;;;15.20;66.00;;;;;;5051731;28;20048;-72
2022/09/23 05:02:34;;;;;;;2.75;1.90;;;15.10;62.70;;;;;;5051775;28;20053;-71
2022/09/23 05:05:02;;;;;;;1.85;1.60;;;15.10;62.60;;;;;;5050932;28;20049;-71
2022/09/23 05:07:29;;;;;;;2.22;2.00;;;15.10;62.70;;;;;;5050560;28;20061;-71
2022/09/23 05:09:56;;;;;;;2.42;1.85;;;15.10;62.70;;;;;;5051481;28;20051;-72
2022/09/23 05:12:23;;;;;;;2.08;1.70;;;15.10;62.70;;;;;;5051740;28;20053;-71
2022/09/23 05:14:50;;;;;;;2.08;1.70;;;15.10;62.70;;;;;;5050332;28;20048;-72
2022/09/23 05:17:16;;;;;;;2.85;1.80;;;15.10;62.70;;;;;;5050625;28;20053;-71
2022/09/23 05:19:43;;;;;;;2.05;1.70;;;15.10;62.70;;;;;;5050577;28;20486;-71
2022/09/23 05:22:11;;;;;;;2.00;1.80;;;14.20;65.80;;;;;;5050520;28;20045;-71
2022/09/23 05:24:38;;;;;;;1.70;1.60;;;14.90;66.00;;;;;;5051624;28;20556;-71
2022/09/23 05:27:06;;;;;;;2.10;1.90;;;15.10;62.70;;;;;;5051355;28;20045;-71
2022/09/23 05:29:33;;;;;;;1.90;1.70;;;15.10;62.70;;;;;;5050538;28;20457;-72
2022/09/23 05:32:01;;;;;;;3.28;1.80;;;15.10;66.20;;;;;;5049950;28;20060;-72
2022/09/23 05:34:27;;;;;;;2.45;1.88;;;15.10;62.70;;;;;;5051473;28;20529;-71
2022/09/23 05:36:54;;;;;;;2.00;1.80;;;15.10;62.70;;;;;;5051697;28;20060;-72
2022/09/23 05:39:22;;;;;;;2.20;1.80;;;15.10;62.70;;;;;;5057295;28;20051;-71
2022/09/23 05:41:49;;;;;;;2.00;1.80;;;15.10;62.70;;;;;;5056500;28;20045;-71
2022/09/23 05:44:16;;;;;;;2.47;1.80;;;15.10;62.70;;;;;;5054335;28;20065;-70
2022/09/23 05:46:43;;;;;;;2.35;1.80;;;15.10;64.60;;;;;;5053856;28;20059;-70
2022/09/23 05:49:09;;;;;;;3.22;1.90;;;15.10;62.70;;;;;;5055317;28;20123;-70
2022/09/23 05:51:36;;;;;;;2.28;1.85;;;15.00;62.60;;;;;;5053774;28;20056;-70
2022/09/23 05:54:04;;;;;;;3.15;2.10;;;15.00;62.60;;;;;;5054120;28;20063;-70
2022/09/23 05:56:33;;;;;;;2.08;1.80;;;15.00;62.60;;;;;;5054155;28;20057;-72
2022/09/23 05:59:00;;;;;;;2.80;1.98;;;15.00;62.60;;;;;;5054492;28;20049;-71
2022/09/23 06:01:27;;;;;;;2.65;1.80;;;15.00;62.60;;;;;;5055460;28;20061;-71
2022/09/23 06:03:55;;;;;;;2.20;1.92;;;15.10;62.70;;;;;;5056429;28;20504;-71
2022/09/23 06:06:25;;;;;;;2.88;2.00;;;15.00;62.60;;;;;;5055770;28;20087;-72
2022/09/23 06:08:52;;;;;;;2.28;2.08;;;15.00;62.60;;;;;;5055823;28;20052;-72
2022/09/23 06:11:20;;;;;;;2.10;1.90;;;15.50;66.00;;;;;;5055361;28;20051;-70
2022/09/23 06:13:49;;;;;;;2.22;2.00;;;15.10;62.60;;;;;;5053822;28;20053;-71
2022/09/23 06:16:15;;;;;;;3.35;2.10;;;15.00;62.60;;;;;;5053618;28;20060;-71
2022/09/23 06:18:43;;;;;;;2.70;1.70;;;15.00;62.60;;;;;;5053521;28;20057;-72
2022/09/23 06:21:12;;;;;;;3.50;2.05;;;15.00;62.60;;;;;;5054361;28;20053;-71
2022/09/23 06:23:38;;;;;;;2.20;1.90;;;15.00;62.60;;;;;;5053573;28;20056;-71
2022/09/23 06:26:06;;;;;;;2.40;2.00;;;15.10;62.60;;;;;;5054342;28;20063;-72
2022/09/23 06:28:34;;;;;;;2.42;1.98;;;15.10;62.60;;;;;;5053939;28;20063;-72
2022/09/23 06:31:03;;;;;;;3.08;2.05;;;15.00;62.50;;;;;;5054046;28;20457;-72
2022/09/23 06:33:29;;;;;;;2.75;2.10;;;15.00;62.60;;;;;;5055314;28;20049;-72
2022/09/23 06:35:57;;;;;;;2.05;1.83;;;15.00;62.60;;;;;;5053965;28;20052;-72
2022/09/23 06:38:24;;;;;;;1.90;1.70;;;14.90;65.90;;;;;;5055228;28;20056;-72
2022/09/23 06:40:51;;;;;;;2.05;1.77;;;15.00;62.50;;;;;;5054110;28;20059;-71
2022/09/23 06:43:18;;;;;;;2.63;1.90;;;15.10;62.60;;;;;;5055676;28;20128;-71
2022/09/23 06:45:44;;;;;;;2.58;2.10;;;15.00;62.50;;;;;;5054874;28;20055;-71
2022/09/23 06:48:13;;;;;;;2.65;2.05;;;15.10;62.60;;;;;;5055105;28;20086;-71
2022/09/23 06:50:39;;;;;;;2.53;2.10;;;15.10;62.50;;;;;;5054385;28;20057;-71
2022/09/23 06:53:06;;;;;;;2.60;1.90;;;15.10;62.50;;;;;;5055071;28;20059;-71
2022/09/23 06:55:33;;;;;;;2.70;2.00;;;15.10;62.50;;;;;;5055629;28;20418;-71
2022/09/23 06:57:59;;;;;;;2.30;2.00;;;15.10;62.50;;;;;;5037397;28;20057;-71
2022/09/23 07:00:27;;;;;;;3.22;2.10;;;15.10;62.50;;;;;;5052623;28;20065;-70
2022/09/23 07:02:55;;;;;;;2.10;1.70;;;15.10;62.50;;;;;;5054631;28;20490;-71
2022/09/23 07:05:23;;;;;;;3.35;2.00;;;15.10;62.50;;;;;;5053798;28;20098;-70
2022/09/23 07:07:52;;;;;;;2.70;1.90;;;15.10;62.50;;;;;;5053729;28;20478;-71
2022/09/23 07:10:19;;;;;;;2.05;1.77;;;15.10;62.50;;;;;;5054525;28;20112;-70
2022/09/23 07:12:45;;;;;;;2.10;1.90;;;15.10;62.50;;;;;;5053972;28;20482;-72
2022/09/23 07:15:14;;;;;;;2.22;1.88;;;15.10;62.50;;;;;;5053157;28;20060;-70
2022/09/23 07:17:41;;;;;;;2.78;1.90;;;15.10;62.50;;;;;;5053961;28;20524;-72
2022/09/23 07:20:10;;;;;;;3.40;1.92;;;15.10;62.40;;;;;;5052659;28;20490;-70
2022/09/23 07:22:38;;;;;;;2.53;1.80;;;15.10;62.50;;;;;;5052490;28;20056;-70
2022/09/23 07:25:05;;;;;;;2.88;1.88;;;15.10;62.40;;;;;;5053556;28;20061;-71
2022/09/23 07:27:32;;;;;;;2.70;2.00;;;15.20;62.50;;;;;;5053791;28;20057;-71
2022/09/23 07:29:59;;;;;;;2.25;1.77;;;15.00;65.80;;;;;;5055016;28;20056;-71
2022/09/23 07:32:26;;;;;;;2.08;1.80;;;15.20;62.40;;;;;;5054950;28;20148;-71
2022/09/23 07:34:52;;;;;;;2.28;1.88;;;15.20;62.40;;;;;;5053207;28;20159;-71
2022/09/23 07:37:19;;;;;;;2.05;1.70;;;15.20;62.40;;;;;;5053718;28;20049;-71
2022/09/23 07:39:47;;;;;;;2.20;1.80;;;15.20;62.40;;;;;;5054729;28;20558;-71
2022/09/23 07:42:14;;;;;;;2.15;1.95;;;15.20;62.40;;;;;;5053082;28;20056;-71
2022/09/23 07:44:42;;;;;;;2.10;1.60;;;15.20;62.40;;;;;;5054563;28;20131;-71
2022/09/23 07:47:08;;;;;;;1.95;1.60;;;15.20;65.90;;;;;;5054616;28;20430;-71
2022/09/23 07:49:35;;;;;;;2.47;2.00;;;15.20;62.40;;;;;;5052859;28;20049;-71
2022/09/23 07:52:02;;;;;;;2.03;1.73;;;14.00;65.00;;;;;;5054214;28;20091;-71
2022/09/23 07:54:29;;;;;;;2.20;1.67;;;15.20;62.30;;;;;;5054265;28;20052;-72
2022/09/23 07:56:58;;;;;;;2.90;1.60;;;15.20;62.30;;;;;;5052524;28;20053;-72
2022/09/23 07:59:25;;;;;;;2.67;1.85;;;15.20;62.30;;;;;;5053050;28;20049;-71
2022/09/23 08:01:52;;;;;;;2.40;1.85;;;15.40;66.00;;;;;;5051814;28;20056;-71
2022/09/23 08:04:20;;;;;;;2.13;1.80;;;15.30;62.40;;;;;;5053105;28;20139;-71
2022/09/23 08:06:48;;;;;;;2.10;1.80;;;15.30;62.40;;;;;;5053028;28;20067;-71
2022/09/23 08:09:15;;;;;;;2.38;1.77;;;15.30;62.30;;;;;;5053209;28;20068;-71
2022/09/23 08:11:42;;;;;;;1.95;1.73;;;15.30;62.30;;;;;;5051181;28;20049;-71
2022/09/23 08:14:10;;;;;;;2.42;1.80;;;15.20;65.90;;;;;;5051922;28;20419;-72
2022/09/23 08:16:37;;;;;;;2.25;1.67;;;15.30;64.10;;;;;;5053225;28;20053;-72
2022/09/23 08:19:04;;;;;;;2.67;1.60;;;15.30;62.30;;;;;;5053219;28;20049;-72
2022/09/23 08:21:30;;;;;;;1.67;1.50;;;15.50;65.70;;;;;;5053476;28;20053;-71
2022/09/23 08:23:57;;;;;;;2.00;1.70;;;15.40;62.30;;;;;;5053837;28;20136;-71
2022/09/23 08:26:24;;;;;;;2.70;1.90;;;15.40;62.30;;;;;;5052922;28;20136;-72
2022/09/23 08:28:53;;;;;;;2.33;1.67;;;15.40;62.80;;;;;;5052078;28;20083;-72
2022/09/23 08:31:21;;;;;;;2.08;1.60;;;15.40;62.20;;;;;;5052031;28;20124;-72
2022/09/23 08:33:48;;;;;;;2.13;1.70;;;15.40;62.20;;;;;;5052358;28;20055;-72
2022/09/23 08:36:14;;;;;;;2.20;1.70;;;15.40;62.20;;;;;;5051150;28;20067;-71
2022/09/23 08:38:41;;;;;;;2.50;1.63;;;15.40;62.20;;;;;;5050787;28;20425;-71
2022/09/23 08:41:11;;;;;;;2.03;1.70;;;15.40;62.20;;;;;;5052842;28;20056;-71
2022/09/23 08:43:38;;;;;;;2.85;1.80;;;15.40;62.20;;;;;;5053959;28;20409;-71
2022/09/23 08:46:06;;;;;;;1.92;1.73;;;15.50;62.20;;;;;;5052394;28;20061;-71
2022/09/23 08:48:35;;;;;;;1.70;1.50;;;15.50;62.20;;;;;;5052351;28;20053;-71
2022/09/23 08:51:04;;;;;;;1.70;1.55;;;15.40;62.10;;;;;;5051556;28;20530;-71
2022/09/23 08:53:33;;;;;;;2.05;1.70;;;15.50;62.20;;;;;;5051927;28;20063;-71
2022/09/23 08:56:00;;;;;;;3.33;1.70;;;15.50;65.20;;;;;;5050700;28;20068;-71
2022/09/23 08:58:34;;;;;;;2.17;1.70;;;15.50;62.10;;;;;;5051716;28;20478;-72
2022/09/23 09:01:07;;;;;;;1.70;1.50;;;15.50;62.10;;;;;;5051537;28;20056;-72
2022/09/23 09:03:36;;;;;;;2.10;1.70;;;15.50;62.10;;;;;;5050617;28;20063;-71
2022/09/23 09:06:03;;;;;;;2.00;1.70;;;15.50;62.10;;;;;;5052387;28;20401;-71
2022/09/23 09:08:34;;;;;;;2.42;1.80;;;15.50;62.10;;;;;;5051606;28;20139;-71
2022/09/23 09:11:00;;;;;;;2.47;1.70;;;15.50;62.10;;;;;;5051327;28;20498;-71
2022/09/23 09:13:30;;;;;;;2.30;1.77;;;15.50;62.10;;;;;;5056134;28;20051;-71
2022/09/23 09:16:10;;;;;;;1.90;1.52;;;15.50;62.10;;;;;;5055111;28;20388;-71
2022/09/23 09:18:39;;;;;;;2.88;1.75;;;15.50;62.10;;;;;;5055933;28;20064;-72
2022/09/23 09:21:08;;;;;;;2.45;1.88;;;15.50;62.10;;;;;;5056620;28;20044;-72
2022/09/23 09:23:39;;;;;;;1.88;1.55;;;15.50;62.10;;;;;;5054827;28;20084;-71
2022/09/23 09:26:06;;;;;;;1.77;1.50;;;15.50;62.10;;;;;;5055569;28;20056;-71
2022/09/23 09:28:35;;;;;;;2.10;1.60;;;15.50;62.00;;;;;;5054325;28;20059;-71
2022/09/23 09:31:02;;;;;;;2.15;1.70;;;15.50;62.00;;;;;;5055568;28;20091;-71
2022/09/23 09:33:32;;;;;;;2.25;1.67;;;15.60;62.10;;;;;;5054257;28;20531;-71
2022/09/23 09:36:08;;;;;;;1.85;1.65;;;15.60;62.00;;;;;;5055530;28;20049;-71
2022/09/23 09:38:35;;;;;;;2.10;1.67;;;15.60;62.00;;;;;;5055568;28;20069;-71
2022/09/23 09:41:10;;;;;;;2.45;1.42;;;15.30;65.50;;;;;;5054996;28;20053;-72
2022/09/23 09:43:39;;;;;;;2.13;1.77;;;15.60;62.00;;;;;;5055190;28;20456;-72
2022/09/23 09:46:10;;;;;;;1.88;1.52;;;15.60;62.00;;;;;;5054522;28;20442;-71
2022/09/23 09:48:39;;;;;;;1.88;1.63;;;15.60;62.00;;;;;;5054268;28;20510;-71
2022/09/23 09:51:20;;;;;;;2.03;1.55;;;15.60;61.90;;;;;;5054806;28;20571;-71
2022/09/23 09:53:47;;;;;;;1.92;1.52;;;15.70;61.90;;;;;;5055234;28;20049;-71
2022/09/23 09:56:15;;;;;;;1.92;1.70;;;15.70;62.00;;;;;;5053802;28;20064;-71
2022/09/23 09:58:45;;;;;;;2.03;1.60;;;15.70;65.60;;;;;;5054082;28;20449;-71
2022/09/23 10:01:19;;;;;;;1.90;1.40;;;15.60;61.90;;;;;;5054586;28;20136;-71
2022/09/23 10:03:46;;;;;;;1.92;1.77;;;16.10;65.80;;;;;;5055120;28;20136;-71
2022/09/23 10:06:15;;;;;;;1.92;1.60;;;15.60;61.90;;;;;;5055087;28;20076;-71
2022/09/23 10:08:47;;;;;;;2.30;1.48;;;15.70;61.90;;;;;;5053883;28;20063;-71
2022/09/23 10:11:15;;;;;;;1.92;1.50;;;15.70;61.90;;;;;;5053650;28;20136;-71
2022/09/23 10:13:41;;;;;;;1.73;1.40;;;15.70;61.90;;;;;;5053566;28;20049;-71
2022/09/23 10:16:08;;;;;;;1.70;1.52;;;15.70;61.90;;;;;;5054709;28;20055;-71
2022/09/23 10:18:37;;;;;;;2.00;1.48;;;15.70;61.80;;;;;;5053865;28;20057;-71
2022/09/23 10:21:07;;;;;;;1.95;1.50;;;15.70;61.80;;;;;;5054440;28;20072;-72
2022/09/23 10:23:34;;;;;;;1.70;1.40;;;15.70;61.80;;;;;;5052822;28;20056;-71
2022/09/23 10:26:04;;;;;;;1.95;1.40;;;15.70;61.80;;;;;;5053339;28;20068;-71
2022/09/23 10:28:41;;;;;;;3.00;1.52;;;15.10;65.30;;;;;;5054930;28;20049;-71
2022/09/23 10:31:09;;;;;;;1.45;1.35;;;16.50;65.50;;;;;;5053326;28;20059;-71
2022/09/23 10:33:40;;;;;;;1.60;1.48;;;15.70;61.80;;;;;;5054705;28;20448;-71
2022/09/23 10:36:09;;;;;;;2.03;1.58;;;15.80;61.80;;;;;;5053106;28;20052;-71
2022/09/23 10:38:36;;;;;;;1.85;1.40;;;15.80;61.80;;;;;;5052917;28;20099;-71
2022/09/23 10:46:40;;;;;;;1.92;1.50;;;15.70;63.90;;;;;;5054023;28;20084;-71
2022/09/23 10:49:24;;;;;;;1.67;1.40;;;15.80;61.80;;;;;;5053572;28;20052;-72
2022/09/23 10:51:55;;;;;;;1.60;1.50;;;15.10;65.10;;;;;;5052617;28;20056;-71
2022/09/23 10:54:24;;;;;;;1.40;1.30;;;15.80;61.80;;;;;;5053190;28;20057;-71
2022/09/23 10:56:53;;;;;;;2.15;1.60;;;14.90;63.50;;;;;;5054529;28;20071;-71
2022/09/23 10:59:42;;;;;;;1.67;1.38;;;15.80;61.70;;;;;;5053928;28;20049;-71
2022/09/23 11:02:28;;;;;;;1.63;1.40;;;15.80;61.70;;;;;;5053073;28;20494;-71
2022/09/23 11:05:17;;;;;;;2.00;1.50;;;15.80;61.70;;;;;;5054060;28;20060;-71
2022/09/23 11:07:46;;;;;;;1.80;1.42;;;15.80;61.70;;;;;;5047729;28;20083;-71
2022/09/23 11:10:23;;;;;;;1.90;1.45;;;15.80;61.70;;;;;;5052961;28;20049;-71
2022/09/23 11:12:55;;;;;;;1.33;1.15;;;15.80;61.70;;;;;;5052773;28;20193;-71
2022/09/23 11:15:30;;;;;;;1.48;1.23;;;15.80;61.70;;;;;;5052892;28;20060;-71
2022/09/23 11:18:33;;;;;;;1.50;1.33;;;15.80;61.70;;;;;;5053877;28;20081;-71
2022/09/23 11:21:06;;;;;;;2.15;1.40;;;15.90;61.70;;;;;;5047688;28;20049;-71
2022/09/23 11:23:41;;;;;;;1.88;1.42;;;15.90;61.80;;;;;;5052332;28;20052;-71
2022/09/23 11:26:13;;;;;;;1.75;1.30;;;15.90;61.70;;;;;;5052560;28;20049;-70
2022/09/23 11:28:59;;;;;;;1.85;1.50;;;15.90;61.80;;;;;;5053104;28;20055;-71
2022/09/23 11:31:32;;;;;;;1.90;1.40;;;15.90;61.70;;;;;;5053316;28;20127;-71
2022/09/23 11:34:17;;;;;;;2.05;1.50;;;15.90;61.70;;;;;;5052073;28;20127;-71
2022/09/23 11:36:46;;;;;;;1.80;1.50;;;15.90;63.60;;;;;;5053243;28;20049;-70
2022/09/23 11:39:14;;;;;;;1.80;1.50;;;15.80;61.70;;;;;;5052122;28;20057;-71
2022/09/23 11:41:41;;;;;;;1.67;1.33;;;15.90;61.70;;;;;;5052561;28;20405;-71
2022/09/23 11:44:13;;;;;;;1.38;1.20;;;15.90;61.80;;;;;;5053603;28;20057;-71
2022/09/23 11:46:41;;;;;;;1.58;1.38;;;15.90;63.80;;;;;;5053107;28;20056;-71
2022/09/23 11:49:09;;;;;;;2.00;1.60;;;15.80;65.40;;;;;;5053285;28;20063;-71
2022/09/23 11:51:40;;;;;;;1.50;1.30;;;15.90;61.70;;;;;;5053062;28;20052;-71
2022/09/23 11:54:11;;;;;;;1.50;1.40;;;15.00;64.50;;;;;;5052475;28;20056;-71
2022/09/23 11:56:40;;;;;;;1.55;1.30;;;15.90;63.50;;;;;;5051907;28;20064;-71
2022/09/23 11:59:14;;;;;;;1.70;1.38;;;15.90;61.70;;;;;;5052785;28;20045;-71
2022/09/23 12:01:44;;;;;;;2.07;1.33;;;15.30;64.40;;;;;;5051478;28;20056;-71
2022/09/23 12:04:13;;;;;;;1.83;1.48;;;15.90;61.80;;;;;;5051538;28;20303;-71
2022/09/23 12:06:42;;;;;;;1.73;1.30;;;15.90;63.80;;;;;;5052846;28;20048;-72
2022/09/23 12:09:14;;;;;;;1.70;1.30;;;15.90;61.70;;;;;;5051499;28;20089;-71
2022/09/23 12:11:42;;;;;;;1.40;1.30;;;15.90;61.70;;;;;;5051489;28;20061;-71
2022/09/23 12:14:16;;;;;;;1.70;1.40;;;15.90;61.70;;;;;;5050956;28;20060;-71
2022/09/23 12:16:58;;;;;;;2.22;1.40;;;16.00;63.90;;;;;;5051513;28;20061;-71
2022/09/23 12:19:42;;;;;;;1.48;1.30;;;15.90;61.60;;;;;;5052508;28;20417;-71
2022/09/23 12:22:26;;;;;;;1.30;1.15;;;15.90;61.60;;;;;;5051477;28;20048;-72
2022/09/23 12:24:57;;;;;;;1.45;1.30;;;15.90;61.70;;;;;;5052526;28;20049;-71
2022/09/23 12:27:28;;;;;;;1.38;1.20;;;15.90;61.70;;;;;;5051188;28;20095;-71
2022/09/23 12:29:58;;;;;;;1.40;1.30;;;15.90;61.70;;;;;;5053063;28;20055;-72
2022/09/23 12:32:25;;;;;;;1.27;1.17;;;16.00;65.20;;;;;;5053017;28;20047;-72
2022/09/23 12:34:52;;;;;;;1.67;1.55;;;15.10;64.20;;;;;;5053060;28;20103;-72
2022/09/23 12:37:27;;;;;;;1.40;1.23;;;15.90;61.60;;;;;;5053279;28;20048;-72
2022/09/23 12:39:53;;;;;;;;;;;15.90;61.60;;;;;;5053993;28;20059;-72
2022/09/23 12:42:21;;;;;;;1.27;1.17;;;15.90;61.70;;;;;;5053380;28;20117;-72
2022/09/23 12:44:48;;;;;;;1.50;1.25;;;15.90;61.80;;;;;;5053134;28;20044;-72
2022/09/23 12:47:37;;;;;;;1.35;1.10;;;15.90;61.70;;;;;;5052484;28;20099;-72
2022/09/23 12:50:37;;;;;;;1.52;1.25;;;15.90;61.60;;;;;;5052268;28;20425;-72
2022/09/23 12:53:52;;;;;;;1.70;1.30;;;15.90;61.70;;;;;;5051847;28;20056;-72
2022/09/23 12:56:20;;;;;;;1.40;1.30;;;15.90;62.30;;;;;;5053122;28;20414;-72
2022/09/23 12:59:00;;;;;;;1.42;1.23;;;16.20;65.30;;;;;;5051559;28;20379;-71
2022/09/23 13:01:27;;;;;;;1.25;1.15;;;16.00;61.80;;;;;;5050487;28;20059;-71
2022/09/23 13:06:41;;;;;;;1.55;1.30;;;15.90;63.60;;;;;;5050808;28;20402;-70
2022/09/23 13:09:09;;;;;;;1.50;1.27;;;15.90;61.80;;;;;;5050649;28;20158;-70
2022/09/23 13:11:39;;;;;;;1.67;1.40;;;15.90;61.70;;;;;;5050070;28;20053;-70